sensor_id;sensor_type;location;lat;lon;timestamp;P1;durP1;ratioP1;P2;durP2;ratioP2
4652;SDS011;9900;48.738;9.306;2023-09-12T00:00:03;13.07;;;8.30;;
4652;SDS011;9900;48.738;9.306;2023-09-12T00:02:33;19.33;;;9.13;;
4652;SDS011;9900;48.738;9.306;2023-09-12T00:05:02;12.27;;;8.27;;
4652;SDS011;9900;48.738;9.306;2023-09-12T00:07:31;16.27;;;9.13;;
4652;SDS011;9900;48.738;9.306;2023-09-12T00:10:00;18.10;;;9.33;;
4652;SDS011;9900;48.738;9.306;2023-09-12T00:12:29;18.83;;;8.53;;
4652;SDS011;9900;48.738;9.306;2023-09-12T00:14:57;14.40;;;8.30;;
4652;SDS011;9900;48.738;9.306;2023-09-12T00:17:28;18.83;;;9.20;;
4652;SDS011;9900;48.738;9.306;2023-09-12T00:19:56;19.53;;;8.90;;
4652;SDS011;9900;48.738;9.306;2023-09-12T00:22:25;13.37;;;8.67;;
4652;SDS011;9900;48.738;9.306;2023-09-12T00:24:54;11.73;;;9.37;;
4652;SDS011;9900;48.738;9.306;2023-09-12T00:27:23;15.90;;;8.63;;
4652;SDS011;9900;48.738;9.306;2023-09-12T00:29:52;15.17;;;8.97;;
4652;SDS011;9900;48.738;9.306;2023-09-12T00:32:20;17.17;;;8.37;;
4652;SDS011;9900;48.738;9.306;2023-09-12T00:34:51;11.03;;;8.10;;
4652;SDS011;9900;48.738;9.306;2023-09-12T00:37:19;17.60;;;9.00;;
4652;SDS011;9900;48.738;9.306;2023-09-12T00:39:48;20.80;;;9.40;;
4652;SDS011;9900;48.738;9.306;2023-09-12T00:42:18;20.10;;;10.53;;
4652;SDS011;9900;48.738;9.306;2023-09-12T00:44:47;20.17;;;8.80;;
4652;SDS011;9900;48.738;9.306;2023-09-12T00:47:16;17.57;;;8.70;;
4652;SDS011;9900;48.738;9.306;2023-09-12T00:49:44;11.47;;;8.30;;
4652;SDS011;9900;48.738;9.306;2023-09-12T00:52:23;15.63;;;8.70;;
4652;SDS011;9900;48.738;9.306;2023-09-12T00:54:53;15.13;;;8.07;;
4652;SDS011;9900;48.738;9.306;2023-09-12T00:57:22;15.70;;;9.00;;
4652;SDS011;9900;48.738;9.306;2023-09-12T00:59:52;17.00;;;9.00;;
4652;SDS011;9900;48.738;9.306;2023-09-12T01:02:21;16.80;;;8.60;;
4652;SDS011;9900;48.738;9.306;2023-09-12T01:04:51;14.53;;;7.77;;
4652;SDS011;9900;48.738;9.306;2023-09-12T01:07:20;14.80;;;8.40;;
4652;SDS011;9900;48.738;9.306;2023-09-12T01:09:50;15.20;;;9.13;;
4652;SDS011;9900;48.738;9.306;2023-09-12T01:12:19;13.67;;;8.53;;
4652;SDS011;9900;48.738;9.306;2023-09-12T01:14:48;15.97;;;8.77;;
4652;SDS011;9900;48.738;9.306;2023-09-12T01:17:17;12.60;;;7.97;;
4652;SDS011;9900;48.738;9.306;2023-09-12T01:19:46;18.37;;;8.93;;
4652;SDS011;9900;48.738;9.306;2023-09-12T01:22:21;15.53;;;7.80;;
4652;SDS011;9900;48.738;9.306;2023-09-12T01:28:15;16.40;;;8.40;;
4652;SDS011;9900;48.738;9.306;2023-09-12T01:30:45;21.23;;;8.80;;
4652;SDS011;9900;48.738;9.306;2023-09-12T01:33:15;18.50;;;10.30;;
4652;SDS011;9900;48.738;9.306;2023-09-12T01:35:44;14.67;;;8.73;;
4652;SDS011;9900;48.738;9.306;2023-09-12T01:38:13;20.60;;;8.90;;
4652;SDS011;9900;48.738;9.306;2023-09-12T01:40:43;16.93;;;9.33;;
4652;SDS011;9900;48.738;9.306;2023-09-12T01:43:16;12.47;;;9.00;;
4652;SDS011;9900;48.738;9.306;2023-09-12T01:45:46;16.03;;;9.60;;
4652;SDS011;9900;48.738;9.306;2023-09-12T01:48:17;17.90;;;10.00;;
4652;SDS011;9900;48.738;9.306;2023-09-12T01:50:48;18.80;;;9.00;;
4652;SDS011;9900;48.738;9.306;2023-09-12T01:53:17;15.67;;;9.00;;
4652;SDS011;9900;48.738;9.306;2023-09-12T01:55:47;19.17;;;9.80;;
4652;SDS011;9900;48.738;9.306;2023-09-12T01:58:17;22.53;;;8.10;;
4652;SDS011;9900;48.738;9.306;2023-09-12T02:00:46;20.70;;;8.53;;
4652;SDS011;9900;48.738;9.306;2023-09-12T02:03:15;12.47;;;9.20;;
4652;SDS011;9900;48.738;9.306;2023-09-12T02:05:44;19.50;;;9.43;;
4652;SDS011;9900;48.738;9.306;2023-09-12T02:08:13;28.13;;;9.80;;
4652;SDS011;9900;48.738;9.306;2023-09-12T02:10:41;20.13;;;10.13;;
4652;SDS011;9900;48.738;9.306;2023-09-12T02:13:10;15.00;;;8.40;;
4652;SDS011;9900;48.738;9.306;2023-09-12T02:15:40;14.20;;;8.30;;
4652;SDS011;9900;48.738;9.306;2023-09-12T02:18:09;15.60;;;9.57;;
4652;SDS011;9900;48.738;9.306;2023-09-12T02:20:39;18.10;;;9.33;;
4652;SDS011;9900;48.738;9.306;2023-09-12T02:23:08;14.57;;;8.30;;
4652;SDS011;9900;48.738;9.306;2023-09-12T02:25:37;19.80;;;9.80;;
4652;SDS011;9900;48.738;9.306;2023-09-12T02:28:06;19.20;;;9.30;;
4652;SDS011;9900;48.738;9.306;2023-09-12T02:30:37;12.70;;;8.77;;
4652;SDS011;9900;48.738;9.306;2023-09-12T02:33:08;15.00;;;9.93;;
4652;SDS011;9900;48.738;9.306;2023-09-12T02:35:37;20.67;;;9.60;;
4652;SDS011;9900;48.738;9.306;2023-09-12T02:38:06;20.43;;;9.70;;
4652;SDS011;9900;48.738;9.306;2023-09-12T02:40:35;22.10;;;9.50;;
4652;SDS011;9900;48.738;9.306;2023-09-12T02:43:04;14.60;;;9.87;;
4652;SDS011;9900;48.738;9.306;2023-09-12T02:45:33;14.97;;;9.13;;
4652;SDS011;9900;48.738;9.306;2023-09-12T02:48:02;16.63;;;10.77;;
4652;SDS011;9900;48.738;9.306;2023-09-12T02:50:32;15.50;;;9.93;;
4652;SDS011;9900;48.738;9.306;2023-09-12T02:53:01;16.47;;;9.63;;
4652;SDS011;9900;48.738;9.306;2023-09-12T02:55:30;15.40;;;9.93;;
4652;SDS011;9900;48.738;9.306;2023-09-12T02:57:59;17.60;;;9.37;;
4652;SDS011;9900;48.738;9.306;2023-09-12T03:00:28;16.70;;;10.07;;
4652;SDS011;9900;48.738;9.306;2023-09-12T03:02:57;14.67;;;9.80;;
4652;SDS011;9900;48.738;9.306;2023-09-12T03:05:25;20.80;;;10.60;;
4652;SDS011;9900;48.738;9.306;2023-09-12T03:07:55;17.97;;;9.27;;
4652;SDS011;9900;48.738;9.306;2023-09-12T03:10:24;15.23;;;9.77;;
4652;SDS011;9900;48.738;9.306;2023-09-12T03:12:53;19.63;;;9.03;;
4652;SDS011;9900;48.738;9.306;2023-09-12T03:15:22;21.80;;;10.27;;
4652;SDS011;9900;48.738;9.306;2023-09-12T03:17:50;15.70;;;9.53;;
4652;SDS011;9900;48.738;9.306;2023-09-12T03:20:19;14.70;;;8.43;;
4652;SDS011;9900;48.738;9.306;2023-09-12T03:22:48;17.83;;;10.20;;
4652;SDS011;9900;48.738;9.306;2023-09-12T03:25:18;15.03;;;10.00;;
4652;SDS011;9900;48.738;9.306;2023-09-12T03:27:47;16.83;;;9.83;;
4652;SDS011;9900;48.738;9.306;2023-09-12T03:30:15;19.30;;;10.00;;
4652;SDS011;9900;48.738;9.306;2023-09-12T03:32:44;17.03;;;9.70;;
4652;SDS011;9900;48.738;9.306;2023-09-12T03:35:13;13.50;;;9.50;;
4652;SDS011;9900;48.738;9.306;2023-09-12T03:37:42;13.67;;;9.33;;
4652;SDS011;9900;48.738;9.306;2023-09-12T03:40:11;15.60;;;9.70;;
4652;SDS011;9900;48.738;9.306;2023-09-12T03:42:41;22.93;;;10.07;;
4652;SDS011;9900;48.738;9.306;2023-09-12T03:45:10;21.57;;;9.80;;
4652;SDS011;9900;48.738;9.306;2023-09-12T03:47:39;15.87;;;9.70;;
4652;SDS011;9900;48.738;9.306;2023-09-12T03:50:08;21.53;;;10.03;;
4652;SDS011;9900;48.738;9.306;2023-09-12T03:52:37;14.90;;;9.30;;
4652;SDS011;9900;48.738;9.306;2023-09-12T03:55:06;16.67;;;9.67;;
4652;SDS011;9900;48.738;9.306;2023-09-12T03:57:35;15.13;;;10.80;;
4652;SDS011;9900;48.738;9.306;2023-09-12T04:00:05;20.23;;;10.20;;
4652;SDS011;9900;48.738;9.306;2023-09-12T04:02:36;16.97;;;9.70;;
4652;SDS011;9900;48.738;9.306;2023-09-12T04:05:05;16.53;;;10.07;;
4652;SDS011;9900;48.738;9.306;2023-09-12T04:07:34;19.03;;;10.27;;
4652;SDS011;9900;48.738;9.306;2023-09-12T04:10:03;14.63;;;10.20;;
4652;SDS011;9900;48.738;9.306;2023-09-12T04:12:32;17.30;;;10.53;;
4652;SDS011;9900;48.738;9.306;2023-09-12T04:15:01;19.63;;;10.07;;
4652;SDS011;9900;48.738;9.306;2023-09-12T04:17:32;15.10;;;10.10;;
4652;SDS011;9900;48.738;9.306;2023-09-12T04:20:01;20.40;;;10.40;;
4652;SDS011;9900;48.738;9.306;2023-09-12T04:22:32;21.97;;;10.20;;
4652;SDS011;9900;48.738;9.306;2023-09-12T04:25:05;19.90;;;10.20;;
4652;SDS011;9900;48.738;9.306;2023-09-12T04:27:35;20.27;;;9.83;;
4652;SDS011;9900;48.738;9.306;2023-09-12T04:30:05;18.73;;;9.57;;
4652;SDS011;9900;48.738;9.306;2023-09-12T04:32:36;16.57;;;10.07;;
4652;SDS011;9900;48.738;9.306;2023-09-12T04:35:06;15.07;;;9.43;;
4652;SDS011;9900;48.738;9.306;2023-09-12T04:37:35;19.93;;;9.23;;
4652;SDS011;9900;48.738;9.306;2023-09-12T04:40:06;17.23;;;9.57;;
4652;SDS011;9900;48.738;9.306;2023-09-12T04:42:36;14.53;;;8.77;;
4652;SDS011;9900;48.738;9.306;2023-09-12T04:45:05;16.63;;;9.50;;
4652;SDS011;9900;48.738;9.306;2023-09-12T04:47:34;14.53;;;9.57;;
4652;SDS011;9900;48.738;9.306;2023-09-12T04:50:05;17.33;;;8.70;;
4652;SDS011;9900;48.738;9.306;2023-09-12T04:52:34;20.40;;;9.35;;
4652;SDS011;9900;48.738;9.306;2023-09-12T04:55:03;17.27;;;9.90;;
4652;SDS011;9900;48.738;9.306;2023-09-12T04:57:32;17.50;;;9.37;;
4652;SDS011;9900;48.738;9.306;2023-09-12T05:00:01;24.00;;;10.13;;
4652;SDS011;9900;48.738;9.306;2023-09-12T05:02:32;18.40;;;8.77;;
4652;SDS011;9900;48.738;9.306;2023-09-12T05:05:01;14.17;;;9.50;;
4652;SDS011;9900;48.738;9.306;2023-09-12T05:07:32;21.57;;;11.63;;
4652;SDS011;9900;48.738;9.306;2023-09-12T05:10:01;17.20;;;10.37;;
4652;SDS011;9900;48.738;9.306;2023-09-12T05:12:31;19.50;;;10.07;;
4652;SDS011;9900;48.738;9.306;2023-09-12T05:15:00;13.63;;;9.13;;
4652;SDS011;9900;48.738;9.306;2023-09-12T05:17:29;16.97;;;9.50;;
4652;SDS011;9900;48.738;9.306;2023-09-12T05:19:57;16.43;;;9.50;;
4652;SDS011;9900;48.738;9.306;2023-09-12T05:22:26;16.03;;;10.20;;
4652;SDS011;9900;48.738;9.306;2023-09-12T05:24:57;19.13;;;10.47;;
4652;SDS011;9900;48.738;9.306;2023-09-12T05:27:26;17.33;;;10.07;;
4652;SDS011;9900;48.738;9.306;2023-09-12T05:29:54;16.03;;;10.13;;
4652;SDS011;9900;48.738;9.306;2023-09-12T05:32:23;21.33;;;10.13;;
4652;SDS011;9900;48.738;9.306;2023-09-12T05:34:52;21.70;;;11.07;;
4652;SDS011;9900;48.738;9.306;2023-09-12T05:37:41;20.83;;;9.80;;
4652;SDS011;9900;48.738;9.306;2023-09-12T05:40:11;16.83;;;10.27;;
4652;SDS011;9900;48.738;9.306;2023-09-12T05:43:04;16.00;;;9.03;;
4652;SDS011;9900;48.738;9.306;2023-09-12T05:45:32;18.80;;;9.73;;
4652;SDS011;9900;48.738;9.306;2023-09-12T05:48:01;14.40;;;9.10;;
4652;SDS011;9900;48.738;9.306;2023-09-12T05:50:30;15.00;;;10.17;;
4652;SDS011;9900;48.738;9.306;2023-09-12T05:52:59;14.23;;;9.60;;
4652;SDS011;9900;48.738;9.306;2023-09-12T05:55:29;19.47;;;9.33;;
4652;SDS011;9900;48.738;9.306;2023-09-12T05:57:58;29.07;;;9.97;;
4652;SDS011;9900;48.738;9.306;2023-09-12T06:00:27;17.87;;;9.80;;
4652;SDS011;9900;48.738;9.306;2023-09-12T06:02:56;23.93;;;10.60;;
4652;SDS011;9900;48.738;9.306;2023-09-12T06:05:25;15.47;;;9.73;;
4652;SDS011;9900;48.738;9.306;2023-09-12T06:07:53;19.13;;;9.30;;
4652;SDS011;9900;48.738;9.306;2023-09-12T06:10:22;17.53;;;9.80;;
4652;SDS011;9900;48.738;9.306;2023-09-12T06:12:53;19.70;;;10.43;;
4652;SDS011;9900;48.738;9.306;2023-09-12T06:15:22;19.50;;;9.17;;
4652;SDS011;9900;48.738;9.306;2023-09-12T06:17:51;17.07;;;10.40;;
4652;SDS011;9900;48.738;9.306;2023-09-12T06:20:20;19.90;;;10.23;;
4652;SDS011;9900;48.738;9.306;2023-09-12T06:22:49;16.50;;;9.83;;
4652;SDS011;9900;48.738;9.306;2023-09-12T06:25:18;15.80;;;9.93;;
4652;SDS011;9900;48.738;9.306;2023-09-12T06:27:47;15.73;;;9.77;;
4652;SDS011;9900;48.738;9.306;2023-09-12T06:30:18;16.03;;;9.33;;
4652;SDS011;9900;48.738;9.306;2023-09-12T06:32:47;14.63;;;9.00;;
4652;SDS011;9900;48.738;9.306;2023-09-12T06:35:16;19.07;;;9.20;;
4652;SDS011;9900;48.738;9.306;2023-09-12T06:37:46;18.53;;;8.90;;
4652;SDS011;9900;48.738;9.306;2023-09-12T06:40:15;16.20;;;9.23;;
4652;SDS011;9900;48.738;9.306;2023-09-12T06:42:44;14.07;;;8.20;;
4652;SDS011;9900;48.738;9.306;2023-09-12T06:45:13;16.60;;;9.70;;
4652;SDS011;9900;48.738;9.306;2023-09-12T06:47:43;20.33;;;9.50;;
4652;SDS011;9900;48.738;9.306;2023-09-12T06:50:12;16.80;;;9.23;;
4652;SDS011;9900;48.738;9.306;2023-09-12T06:52:42;19.93;;;9.37;;
4652;SDS011;9900;48.738;9.306;2023-09-12T06:55:11;15.90;;;9.40;;
4652;SDS011;9900;48.738;9.306;2023-09-12T06:57:40;12.90;;;8.83;;
4652;SDS011;9900;48.738;9.306;2023-09-12T07:00:10;15.43;;;8.57;;
4652;SDS011;9900;48.738;9.306;2023-09-12T07:02:39;19.27;;;10.33;;
4652;SDS011;9900;48.738;9.306;2023-09-12T07:05:10;20.60;;;9.63;;
4652;SDS011;9900;48.738;9.306;2023-09-12T07:07:39;18.50;;;8.53;;
4652;SDS011;9900;48.738;9.306;2023-09-12T07:10:07;19.83;;;9.97;;
4652;SDS011;9900;48.738;9.306;2023-09-12T07:12:54;15.47;;;9.23;;
4652;SDS011;9900;48.738;9.306;2023-09-12T07:15:23;22.67;;;9.40;;
4652;SDS011;9900;48.738;9.306;2023-09-12T07:17:52;16.13;;;10.27;;
4652;SDS011;9900;48.738;9.306;2023-09-12T07:20:23;21.70;;;9.30;;
4652;SDS011;9900;48.738;9.306;2023-09-12T07:22:51;16.83;;;9.20;;
4652;SDS011;9900;48.738;9.306;2023-09-12T07:25:20;17.27;;;10.17;;
4652;SDS011;9900;48.738;9.306;2023-09-12T07:27:51;12.57;;;8.93;;
4652;SDS011;9900;48.738;9.306;2023-09-12T07:30:20;15.37;;;8.47;;
4652;SDS011;9900;48.738;9.306;2023-09-12T07:32:49;16.33;;;8.57;;
4652;SDS011;9900;48.738;9.306;2023-09-12T07:35:19;21.27;;;8.60;;
4652;SDS011;9900;48.738;9.306;2023-09-12T07:37:52;24.37;;;9.60;;
4652;SDS011;9900;48.738;9.306;2023-09-12T07:40:21;14.60;;;8.20;;
4652;SDS011;9900;48.738;9.306;2023-09-12T07:42:50;24.17;;;9.67;;
4652;SDS011;9900;48.738;9.306;2023-09-12T07:45:20;12.37;;;8.83;;
4652;SDS011;9900;48.738;9.306;2023-09-12T07:47:48;19.73;;;9.73;;
4652;SDS011;9900;48.738;9.306;2023-09-12T07:50:18;21.70;;;9.43;;
4652;SDS011;9900;48.738;9.306;2023-09-12T07:52:47;17.30;;;8.00;;
4652;SDS011;9900;48.738;9.306;2023-09-12T07:55:19;21.40;;;10.10;;
4652;SDS011;9900;48.738;9.306;2023-09-12T07:57:48;17.23;;;9.60;;
4652;SDS011;9900;48.738;9.306;2023-09-12T08:00:17;18.30;;;8.73;;
4652;SDS011;9900;48.738;9.306;2023-09-12T08:02:46;18.30;;;8.57;;
4652;SDS011;9900;48.738;9.306;2023-09-12T08:05:15;15.40;;;8.60;;
4652;SDS011;9900;48.738;9.306;2023-09-12T08:07:46;17.77;;;9.30;;
4652;SDS011;9900;48.738;9.306;2023-09-12T08:10:15;15.40;;;9.60;;
4652;SDS011;9900;48.738;9.306;2023-09-12T08:12:45;15.70;;;8.43;;
4652;SDS011;9900;48.738;9.306;2023-09-12T08:15:14;19.70;;;9.83;;
4652;SDS011;9900;48.738;9.306;2023-09-12T08:17:42;24.27;;;9.90;;
4652;SDS011;9900;48.738;9.306;2023-09-12T08:20:12;14.63;;;9.30;;
4652;SDS011;9900;48.738;9.306;2023-09-12T08:22:41;19.37;;;9.17;;
4652;SDS011;9900;48.738;9.306;2023-09-12T08:25:10;14.23;;;8.63;;
4652;SDS011;9900;48.738;9.306;2023-09-12T08:27:40;24.20;;;9.50;;
4652;SDS011;9900;48.738;9.306;2023-09-12T08:30:12;16.57;;;8.63;;
4652;SDS011;9900;48.738;9.306;2023-09-12T08:32:41;15.83;;;8.40;;
4652;SDS011;9900;48.738;9.306;2023-09-12T08:35:12;15.17;;;8.60;;
4652;SDS011;9900;48.738;9.306;2023-09-12T08:37:41;12.20;;;8.50;;
4652;SDS011;9900;48.738;9.306;2023-09-12T08:40:11;18.83;;;9.00;;
4652;SDS011;9900;48.738;9.306;2023-09-12T08:42:40;18.87;;;8.93;;
4652;SDS011;9900;48.738;9.306;2023-09-12T08:45:12;20.33;;;8.40;;
4652;SDS011;9900;48.738;9.306;2023-09-12T08:47:43;18.87;;;9.23;;
4652;SDS011;9900;48.738;9.306;2023-09-12T08:50:14;16.33;;;8.40;;
4652;SDS011;9900;48.738;9.306;2023-09-12T08:52:44;20.33;;;8.50;;
4652;SDS011;9900;48.738;9.306;2023-09-12T08:55:32;12.60;;;8.83;;
4652;SDS011;9900;48.738;9.306;2023-09-12T08:58:03;17.37;;;9.67;;
4652;SDS011;9900;48.738;9.306;2023-09-12T09:00:35;19.53;;;10.43;;
4652;SDS011;9900;48.738;9.306;2023-09-12T09:03:04;16.80;;;9.57;;
4652;SDS011;9900;48.738;9.306;2023-09-12T09:05:34;18.63;;;10.67;;
4652;SDS011;9900;48.738;9.306;2023-09-12T09:08:04;12.10;;;8.50;;
4652;SDS011;9900;48.738;9.306;2023-09-12T09:10:33;12.70;;;9.03;;
4652;SDS011;9900;48.738;9.306;2023-09-12T09:13:17;12.60;;;7.90;;
4652;SDS011;9900;48.738;9.306;2023-09-12T09:15:47;10.37;;;7.80;;
4652;SDS011;9900;48.738;9.306;2023-09-12T09:18:16;16.13;;;8.43;;
4652;SDS011;9900;48.738;9.306;2023-09-12T09:20:45;12.50;;;8.13;;
4652;SDS011;9900;48.738;9.306;2023-09-12T09:23:17;14.90;;;8.70;;
4652;SDS011;9900;48.738;9.306;2023-09-12T09:25:51;12.33;;;8.60;;
4652;SDS011;9900;48.738;9.306;2023-09-12T09:28:20;19.27;;;8.60;;
4652;SDS011;9900;48.738;9.306;2023-09-12T09:30:52;18.87;;;8.87;;
4652;SDS011;9900;48.738;9.306;2023-09-12T09:33:22;11.43;;;8.03;;
4652;SDS011;9900;48.738;9.306;2023-09-12T09:35:52;17.93;;;10.80;;
4652;SDS011;9900;48.738;9.306;2023-09-12T09:38:31;12.60;;;9.10;;
4652;SDS011;9900;48.738;9.306;2023-09-12T09:40:59;15.00;;;8.23;;
4652;SDS011;9900;48.738;9.306;2023-09-12T09:43:28;18.67;;;8.30;;
4652;SDS011;9900;48.738;9.306;2023-09-12T09:46:00;11.67;;;8.20;;
4652;SDS011;9900;48.738;9.306;2023-09-12T09:48:30;11.07;;;7.93;;
4652;SDS011;9900;48.738;9.306;2023-09-12T09:51:00;13.60;;;8.27;;
4652;SDS011;9900;48.738;9.306;2023-09-12T09:53:29;9.60;;;7.70;;
4652;SDS011;9900;48.738;9.306;2023-09-12T09:56:09;11.77;;;6.90;;
4652;SDS011;9900;48.738;9.306;2023-09-12T09:58:42;13.87;;;8.07;;
4652;SDS011;9900;48.738;9.306;2023-09-12T10:01:18;12.83;;;8.47;;
4652;SDS011;9900;48.738;9.306;2023-09-12T10:03:49;12.50;;;7.40;;
4652;SDS011;9900;48.738;9.306;2023-09-12T10:06:19;13.60;;;7.97;;
4652;SDS011;9900;48.738;9.306;2023-09-12T10:08:50;10.10;;;7.10;;
4652;SDS011;9900;48.738;9.306;2023-09-12T10:11:20;11.40;;;8.03;;
4652;SDS011;9900;48.738;9.306;2023-09-12T10:13:53;9.93;;;6.40;;
4652;SDS011;9900;48.738;9.306;2023-09-12T10:16:24;12.73;;;8.70;;
4652;SDS011;9900;48.738;9.306;2023-09-12T10:18:59;9.67;;;7.20;;
4652;SDS011;9900;48.738;9.306;2023-09-12T10:21:34;8.27;;;7.23;;
4652;SDS011;9900;48.738;9.306;2023-09-12T10:24:03;12.50;;;7.07;;
4652;SDS011;9900;48.738;9.306;2023-09-12T10:26:33;12.80;;;8.23;;
4652;SDS011;9900;48.738;9.306;2023-09-12T10:29:03;9.30;;;6.97;;
4652;SDS011;9900;48.738;9.306;2023-09-12T10:31:33;15.50;;;7.47;;
4652;SDS011;9900;48.738;9.306;2023-09-12T10:34:03;9.57;;;6.73;;
4652;SDS011;9900;48.738;9.306;2023-09-12T10:36:34;9.67;;;7.87;;
4652;SDS011;9900;48.738;9.306;2023-09-12T10:39:03;8.70;;;6.80;;
4652;SDS011;9900;48.738;9.306;2023-09-12T10:41:36;15.90;;;8.17;;
4652;SDS011;9900;48.738;9.306;2023-09-12T10:44:07;9.80;;;7.03;;
4652;SDS011;9900;48.738;9.306;2023-09-12T10:46:40;10.70;;;7.10;;
4652;SDS011;9900;48.738;9.306;2023-09-12T10:49:09;9.30;;;7.87;;
4652;SDS011;9900;48.738;9.306;2023-09-12T10:51:39;12.50;;;7.50;;
4652;SDS011;9900;48.738;9.306;2023-09-12T10:54:12;11.87;;;7.20;;
4652;SDS011;9900;48.738;9.306;2023-09-12T10:56:41;10.63;;;7.67;;
4652;SDS011;9900;48.738;9.306;2023-09-12T10:59:14;11.00;;;7.43;;
4652;SDS011;9900;48.738;9.306;2023-09-12T11:01:44;7.83;;;6.17;;
4652;SDS011;9900;48.738;9.306;2023-09-12T11:04:30;10.70;;;6.53;;
4652;SDS011;9900;48.738;9.306;2023-09-12T11:07:01;8.13;;;6.30;;
4652;SDS011;9900;48.738;9.306;2023-09-12T11:09:30;14.70;;;6.97;;
4652;SDS011;9900;48.738;9.306;2023-09-12T11:12:01;8.47;;;6.00;;
4652;SDS011;9900;48.738;9.306;2023-09-12T11:14:32;12.67;;;6.40;;
4652;SDS011;9900;48.738;9.306;2023-09-12T11:17:21;15.20;;;6.30;;
4652;SDS011;9900;48.738;9.306;2023-09-12T11:19:51;8.70;;;5.53;;
4652;SDS011;9900;48.738;9.306;2023-09-12T11:22:24;8.23;;;6.17;;
4652;SDS011;9900;48.738;9.306;2023-09-12T11:24:54;11.50;;;6.30;;
4652;SDS011;9900;48.738;9.306;2023-09-12T11:27:25;7.73;;;5.60;;
4652;SDS011;9900;48.738;9.306;2023-09-12T11:30:06;11.43;;;5.10;;
4652;SDS011;9900;48.738;9.306;2023-09-12T11:32:36;12.50;;;5.07;;
4652;SDS011;9900;48.738;9.306;2023-09-12T11:35:06;7.07;;;5.50;;
4652;SDS011;9900;48.738;9.306;2023-09-12T11:37:36;9.43;;;5.93;;
4652;SDS011;9900;48.738;9.306;2023-09-12T11:40:17;9.20;;;4.80;;
4652;SDS011;9900;48.738;9.306;2023-09-12T11:42:50;12.73;;;4.90;;
4652;SDS011;9900;48.738;9.306;2023-09-12T11:45:20;14.40;;;5.57;;
4652;SDS011;9900;48.738;9.306;2023-09-12T11:47:52;9.97;;;5.03;;
4652;SDS011;9900;48.738;9.306;2023-09-12T11:50:29;7.00;;;4.90;;
4652;SDS011;9900;48.738;9.306;2023-09-12T11:53:00;10.60;;;4.80;;
4652;SDS011;9900;48.738;9.306;2023-09-12T11:55:31;14.30;;;4.97;;
4652;SDS011;9900;48.738;9.306;2023-09-12T11:58:00;8.47;;;5.33;;
4652;SDS011;9900;48.738;9.306;2023-09-12T12:00:30;12.20;;;5.03;;
4652;SDS011;9900;48.738;9.306;2023-09-12T12:03:00;9.80;;;4.30;;
4652;SDS011;9900;48.738;9.306;2023-09-12T12:05:30;9.57;;;5.50;;
4652;SDS011;9900;48.738;9.306;2023-09-12T12:07:59;10.43;;;5.07;;
4652;SDS011;9900;48.738;9.306;2023-09-12T12:10:51;11.57;;;5.60;;
4652;SDS011;9900;48.738;9.306;2023-09-12T12:13:21;9.13;;;5.10;;
4652;SDS011;9900;48.738;9.306;2023-09-12T12:15:51;8.93;;;4.70;;
4652;SDS011;9900;48.738;9.306;2023-09-12T12:18:21;12.83;;;5.00;;
4652;SDS011;9900;48.738;9.306;2023-09-12T12:20:50;4.47;;;4.07;;
4652;SDS011;9900;48.738;9.306;2023-09-12T12:23:19;7.17;;;4.70;;
4652;SDS011;9900;48.738;9.306;2023-09-12T12:25:48;10.63;;;5.37;;
4652;SDS011;9900;48.738;9.306;2023-09-12T12:28:16;5.20;;;4.67;;
4652;SDS011;9900;48.738;9.306;2023-09-12T12:30:45;8.50;;;4.90;;
4652;SDS011;9900;48.738;9.306;2023-09-12T12:33:14;12.17;;;4.87;;
4652;SDS011;9900;48.738;9.306;2023-09-12T12:36:05;5.50;;;4.60;;
4652;SDS011;9900;48.738;9.306;2023-09-12T12:38:36;6.67;;;5.17;;
4652;SDS011;9900;48.738;9.306;2023-09-12T12:41:26;5.23;;;4.27;;
4652;SDS011;9900;48.738;9.306;2023-09-12T12:44:06;9.77;;;4.57;;
4652;SDS011;9900;48.738;9.306;2023-09-12T12:46:35;6.63;;;4.27;;
4652;SDS011;9900;48.738;9.306;2023-09-12T12:49:16;12.00;;;4.23;;
4652;SDS011;9900;48.738;9.306;2023-09-12T12:51:46;5.70;;;4.47;;
4652;SDS011;9900;48.738;9.306;2023-09-12T12:54:16;8.10;;;4.63;;
4652;SDS011;9900;48.738;9.306;2023-09-12T12:56:44;7.17;;;4.10;;
4652;SDS011;9900;48.738;9.306;2023-09-12T12:59:13;7.37;;;4.33;;
4652;SDS011;9900;48.738;9.306;2023-09-12T13:01:43;6.90;;;4.77;;
4652;SDS011;9900;48.738;9.306;2023-09-12T13:04:12;7.07;;;4.23;;
4652;SDS011;9900;48.738;9.306;2023-09-12T13:06:41;6.80;;;5.07;;
4652;SDS011;9900;48.738;9.306;2023-09-12T13:09:11;7.03;;;4.87;;
4652;SDS011;9900;48.738;9.306;2023-09-12T13:11:40;6.17;;;4.63;;
4652;SDS011;9900;48.738;9.306;2023-09-12T13:14:09;4.80;;;4.23;;
4652;SDS011;9900;48.738;9.306;2023-09-12T13:16:39;6.17;;;4.80;;
4652;SDS011;9900;48.738;9.306;2023-09-12T13:19:09;7.67;;;5.57;;
4652;SDS011;9900;48.738;9.306;2023-09-12T13:21:40;5.50;;;4.90;;
4652;SDS011;9900;48.738;9.306;2023-09-12T13:24:11;5.20;;;4.70;;
4652;SDS011;9900;48.738;9.306;2023-09-12T13:26:40;5.77;;;5.10;;
4652;SDS011;9900;48.738;9.306;2023-09-12T13:29:10;8.70;;;5.00;;
4652;SDS011;9900;48.738;9.306;2023-09-12T13:31:39;5.70;;;5.03;;
4652;SDS011;9900;48.738;9.306;2023-09-12T13:34:07;8.07;;;4.70;;
4652;SDS011;9900;48.738;9.306;2023-09-12T13:36:37;10.43;;;4.90;;
4652;SDS011;9900;48.738;9.306;2023-09-12T13:39:06;7.40;;;4.97;;
4652;SDS011;9900;48.738;9.306;2023-09-12T13:41:37;11.03;;;5.63;;
4652;SDS011;9900;48.738;9.306;2023-09-12T13:44:07;7.23;;;5.07;;
4652;SDS011;9900;48.738;9.306;2023-09-12T13:46:36;6.23;;;4.87;;
4652;SDS011;9900;48.738;9.306;2023-09-12T13:49:05;6.47;;;4.90;;
4652;SDS011;9900;48.738;9.306;2023-09-12T13:51:34;8.53;;;5.40;;
4652;SDS011;9900;48.738;9.306;2023-09-12T13:54:03;12.17;;;8.07;;
4652;SDS011;9900;48.738;9.306;2023-09-12T13:56:34;9.70;;;8.00;;
4652;SDS011;9900;48.738;9.306;2023-09-12T13:59:05;6.67;;;5.40;;
4652;SDS011;9900;48.738;9.306;2023-09-12T14:01:34;15.67;;;4.90;;
4652;SDS011;9900;48.738;9.306;2023-09-12T14:04:03;8.37;;;5.60;;
4652;SDS011;9900;48.738;9.306;2023-09-12T14:06:33;10.60;;;5.40;;
4652;SDS011;9900;48.738;9.306;2023-09-12T14:09:03;13.00;;;5.90;;
4652;SDS011;9900;48.738;9.306;2023-09-12T14:11:33;6.83;;;6.00;;
4652;SDS011;9900;48.738;9.306;2023-09-12T14:14:05;6.10;;;5.03;;
4652;SDS011;9900;48.738;9.306;2023-09-12T14:16:43;6.03;;;5.00;;
4652;SDS011;9900;48.738;9.306;2023-09-12T14:19:15;7.83;;;5.10;;
4652;SDS011;9900;48.738;9.306;2023-09-12T14:21:44;7.80;;;4.80;;
4652;SDS011;9900;48.738;9.306;2023-09-12T14:24:16;11.83;;;4.70;;
4652;SDS011;9900;48.738;9.306;2023-09-12T14:26:47;7.97;;;5.00;;
4652;SDS011;9900;48.738;9.306;2023-09-12T14:29:20;8.03;;;5.37;;
4652;SDS011;9900;48.738;9.306;2023-09-12T14:31:49;10.87;;;5.47;;
4652;SDS011;9900;48.738;9.306;2023-09-12T14:34:25;11.33;;;5.00;;
4652;SDS011;9900;48.738;9.306;2023-09-12T14:36:55;8.00;;;6.07;;
4652;SDS011;9900;48.738;9.306;2023-09-12T14:39:24;8.37;;;5.30;;
4652;SDS011;9900;48.738;9.306;2023-09-12T14:41:53;17.10;;;6.33;;
4652;SDS011;9900;48.738;9.306;2023-09-12T14:44:23;9.20;;;5.50;;
4652;SDS011;9900;48.738;9.306;2023-09-12T14:46:53;10.47;;;5.20;;
4652;SDS011;9900;48.738;9.306;2023-09-12T14:49:22;15.90;;;6.00;;
4652;SDS011;9900;48.738;9.306;2023-09-12T14:51:50;5.53;;;5.03;;
4652;SDS011;9900;48.738;9.306;2023-09-12T14:54:19;9.90;;;5.90;;
4652;SDS011;9900;48.738;9.306;2023-09-12T14:56:50;7.90;;;5.90;;
4652;SDS011;9900;48.738;9.306;2023-09-12T14:59:18;7.73;;;5.50;;
4652;SDS011;9900;48.738;9.306;2023-09-12T15:01:49;10.47;;;5.30;;
4652;SDS011;9900;48.738;9.306;2023-09-12T15:04:18;8.40;;;5.60;;
4652;SDS011;9900;48.738;9.306;2023-09-12T15:06:47;12.50;;;5.83;;
4652;SDS011;9900;48.738;9.306;2023-09-12T15:09:16;9.93;;;5.60;;
4652;SDS011;9900;48.738;9.306;2023-09-12T15:11:44;16.47;;;5.77;;
4652;SDS011;9900;48.738;9.306;2023-09-12T15:14:13;9.70;;;5.70;;
4652;SDS011;9900;48.738;9.306;2023-09-12T15:16:42;11.00;;;6.47;;
4652;SDS011;9900;48.738;9.306;2023-09-12T15:19:13;10.70;;;5.90;;
4652;SDS011;9900;48.738;9.306;2023-09-12T15:21:42;13.07;;;6.50;;
4652;SDS011;9900;48.738;9.306;2023-09-12T15:24:11;10.00;;;5.53;;